sensor_id;sensor_type;location;lat;lon;timestamp;P1;durP1;ratioP1;P2;durP2;ratioP2
9328;SDS011;4703;48.748;19.142;2023-04-07T00:01:38;8.00;;;7.20;;
9328;SDS011;4703;48.748;19.142;2023-04-07T00:04:05;7.87;;;7.03;;
9328;SDS011;4703;48.748;19.142;2023-04-07T00:06:32;9.30;;;7.67;;
9328;SDS011;4703;48.748;19.142;2023-04-07T00:08:59;11.53;;;7.77;;
9328;SDS011;4703;48.748;19.142;2023-04-07T00:11:26;9.20;;;7.27;;
9328;SDS011;4703;48.748;19.142;2023-04-07T00:13:53;7.23;;;6.53;;
9328;SDS011;4703;48.748;19.142;2023-04-07T00:16:21;8.97;;;7.00;;
9328;SDS011;4703;48.748;19.142;2023-04-07T00:18:48;8.20;;;7.37;;
9328;SDS011;4703;48.748;19.142;2023-04-07T00:21:17;7.47;;;6.63;;
9328;SDS011;4703;48.748;19.142;2023-04-07T00:23:44;8.90;;;6.70;;
9328;SDS011;4703;48.748;19.142;2023-04-07T00:26:12;8.87;;;6.60;;
9328;SDS011;4703;48.748;19.142;2023-04-07T00:28:39;8.30;;;6.27;;
9328;SDS011;4703;48.748;19.142;2023-04-07T00:31:06;8.13;;;7.20;;
9328;SDS011;4703;48.748;19.142;2023-04-07T00:33:33;8.60;;;6.60;;
9328;SDS011;4703;48.748;19.142;2023-04-07T00:36:00;6.50;;;5.90;;
9328;SDS011;4703;48.748;19.142;2023-04-07T00:38:27;6.73;;;6.00;;
9328;SDS011;4703;48.748;19.142;2023-04-07T00:40:58;8.73;;;6.47;;
9328;SDS011;4703;48.748;19.142;2023-04-07T00:43:25;5.97;;;5.37;;
9328;SDS011;4703;48.748;19.142;2023-04-07T00:45:52;10.57;;;6.70;;
9328;SDS011;4703;48.748;19.142;2023-04-07T00:48:20;7.77;;;6.43;;
9328;SDS011;4703;48.748;19.142;2023-04-07T00:50:47;7.97;;;6.03;;
9328;SDS011;4703;48.748;19.142;2023-04-07T00:53:15;6.83;;;5.90;;
9328;SDS011;4703;48.748;19.142;2023-04-07T00:55:42;7.60;;;5.83;;
9328;SDS011;4703;48.748;19.142;2023-04-07T00:58:09;6.60;;;5.50;;
9328;SDS011;4703;48.748;19.142;2023-04-07T01:00:40;6.80;;;5.73;;
9328;SDS011;4703;48.748;19.142;2023-04-07T01:03:17;6.10;;;5.40;;
9328;SDS011;4703;48.748;19.142;2023-04-07T01:05:53;7.13;;;5.37;;
9328;SDS011;4703;48.748;19.142;2023-04-07T01:08:29;5.60;;;5.00;;
9328;SDS011;4703;48.748;19.142;2023-04-07T01:11:10;8.10;;;6.30;;
9328;SDS011;4703;48.748;19.142;2023-04-07T01:13:49;6.03;;;5.43;;
9328;SDS011;4703;48.748;19.142;2023-04-07T01:22:07;5.80;;;5.30;;
9328;SDS011;4703;48.748;19.142;2023-04-07T01:30:22;6.20;;;5.60;;
9328;SDS011;4703;48.748;19.142;2023-04-07T01:32:57;6.10;;;5.50;;
9328;SDS011;4703;48.748;19.142;2023-04-07T01:35:29;7.37;;;6.00;;
9328;SDS011;4703;48.748;19.142;2023-04-07T01:38:00;8.03;;;6.20;;
9328;SDS011;4703;48.748;19.142;2023-04-07T01:40:29;7.73;;;6.47;;
9328;SDS011;4703;48.748;19.142;2023-04-07T01:42:58;8.30;;;6.40;;
9328;SDS011;4703;48.748;19.142;2023-04-07T01:45:26;6.83;;;6.00;;
9328;SDS011;4703;48.748;19.142;2023-04-07T01:47:55;5.57;;;5.00;;
9328;SDS011;4703;48.748;19.142;2023-04-07T01:50:23;6.30;;;5.70;;
9328;SDS011;4703;48.748;19.142;2023-04-07T01:52:51;7.47;;;6.50;;
9328;SDS011;4703;48.748;19.142;2023-04-07T01:55:18;9.17;;;6.10;;
9328;SDS011;4703;48.748;19.142;2023-04-07T01:57:46;7.53;;;6.50;;
9328;SDS011;4703;48.748;19.142;2023-04-07T02:00:13;7.30;;;5.50;;
9328;SDS011;4703;48.748;19.142;2023-04-07T02:02:42;7.40;;;5.80;;
9328;SDS011;4703;48.748;19.142;2023-04-07T02:05:12;6.30;;;5.57;;
9328;SDS011;4703;48.748;19.142;2023-04-07T02:07:51;7.23;;;5.50;;
9328;SDS011;4703;48.748;19.142;2023-04-07T02:10:29;6.77;;;5.80;;
9328;SDS011;4703;48.748;19.142;2023-04-07T02:13:02;5.73;;;5.20;;
9328;SDS011;4703;48.748;19.142;2023-04-07T02:15:31;6.87;;;5.40;;
9328;SDS011;4703;48.748;19.142;2023-04-07T02:17:59;9.53;;;6.13;;
9328;SDS011;4703;48.748;19.142;2023-04-07T02:20:27;5.40;;;4.90;;
9328;SDS011;4703;48.748;19.142;2023-04-07T02:22:55;5.47;;;4.90;;
9328;SDS011;4703;48.748;19.142;2023-04-07T02:25:23;4.80;;;4.30;;
9328;SDS011;4703;48.748;19.142;2023-04-07T02:27:57;5.40;;;4.90;;
9328;SDS011;4703;48.748;19.142;2023-04-07T02:30:25;5.30;;;4.70;;
9328;SDS011;4703;48.748;19.142;2023-04-07T02:32:53;5.80;;;4.70;;
9328;SDS011;4703;48.748;19.142;2023-04-07T02:35:21;5.70;;;5.13;;
9328;SDS011;4703;48.748;19.142;2023-04-07T02:37:48;5.60;;;5.03;;
9328;SDS011;4703;48.748;19.142;2023-04-07T02:40:15;6.33;;;5.30;;
9328;SDS011;4703;48.748;19.142;2023-04-07T02:42:42;7.53;;;5.67;;
9328;SDS011;4703;48.748;19.142;2023-04-07T02:45:10;5.30;;;4.77;;
9328;SDS011;4703;48.748;19.142;2023-04-07T02:47:37;5.70;;;5.07;;
9328;SDS011;4703;48.748;19.142;2023-04-07T02:50:05;5.73;;;4.93;;
9328;SDS011;4703;48.748;19.142;2023-04-07T02:52:33;6.73;;;5.10;;
9328;SDS011;4703;48.748;19.142;2023-04-07T02:55:00;7.60;;;6.80;;
9328;SDS011;4703;48.748;19.142;2023-04-07T02:57:27;10.97;;;8.93;;
9328;SDS011;4703;48.748;19.142;2023-04-07T02:59:54;12.20;;;9.83;;
9328;SDS011;4703;48.748;19.142;2023-04-07T03:02:23;17.07;;;12.20;;
9328;SDS011;4703;48.748;19.142;2023-04-07T03:04:50;13.23;;;10.50;;
9328;SDS011;4703;48.748;19.142;2023-04-07T03:07:18;12.63;;;10.83;;
9328;SDS011;4703;48.748;19.142;2023-04-07T03:09:45;15.03;;;10.60;;
9328;SDS011;4703;48.748;19.142;2023-04-07T03:12:12;15.90;;;11.50;;
9328;SDS011;4703;48.748;19.142;2023-04-07T03:14:39;15.50;;;12.07;;
9328;SDS011;4703;48.748;19.142;2023-04-07T03:17:06;13.13;;;11.73;;
9328;SDS011;4703;48.748;19.142;2023-04-07T03:19:34;14.47;;;12.07;;
9328;SDS011;4703;48.748;19.142;2023-04-07T03:22:01;19.50;;;13.13;;
9328;SDS011;4703;48.748;19.142;2023-04-07T03:24:28;14.40;;;12.10;;
9328;SDS011;4703;48.748;19.142;2023-04-07T03:26:55;17.00;;;12.73;;
9328;SDS011;4703;48.748;19.142;2023-04-07T03:29:22;15.40;;;12.10;;
9328;SDS011;4703;48.748;19.142;2023-04-07T03:31:49;16.67;;;13.13;;
9328;SDS011;4703;48.748;19.142;2023-04-07T03:34:16;23.20;;;13.60;;
9328;SDS011;4703;48.748;19.142;2023-04-07T03:36:43;18.03;;;13.00;;
9328;SDS011;4703;48.748;19.142;2023-04-07T03:39:10;14.67;;;12.00;;
9328;SDS011;4703;48.748;19.142;2023-04-07T03:41:37;17.30;;;12.67;;
9328;SDS011;4703;48.748;19.142;2023-04-07T03:44:04;14.33;;;11.50;;
9328;SDS011;4703;48.748;19.142;2023-04-07T03:46:32;13.57;;;11.03;;
9328;SDS011;4703;48.748;19.142;2023-04-07T03:48:59;14.23;;;11.50;;
9328;SDS011;4703;48.748;19.142;2023-04-07T03:51:26;14.97;;;12.53;;
9328;SDS011;4703;48.748;19.142;2023-04-07T03:53:53;16.13;;;12.47;;
9328;SDS011;4703;48.748;19.142;2023-04-07T03:56:20;14.43;;;12.07;;
9328;SDS011;4703;48.748;19.142;2023-04-07T03:58:47;18.03;;;11.57;;
9328;SDS011;4703;48.748;19.142;2023-04-07T04:01:14;15.90;;;11.97;;
9328;SDS011;4703;48.748;19.142;2023-04-07T04:03:42;16.23;;;12.03;;
9328;SDS011;4703;48.748;19.142;2023-04-07T04:06:09;12.00;;;10.77;;
9328;SDS011;4703;48.748;19.142;2023-04-07T04:08:36;15.50;;;12.43;;
9328;SDS011;4703;48.748;19.142;2023-04-07T04:11:03;16.53;;;13.80;;
9328;SDS011;4703;48.748;19.142;2023-04-07T04:13:30;17.07;;;12.10;;
9328;SDS011;4703;48.748;19.142;2023-04-07T04:15:57;19.43;;;13.20;;
9328;SDS011;4703;48.748;19.142;2023-04-07T04:18:24;16.37;;;12.83;;
9328;SDS011;4703;48.748;19.142;2023-04-07T04:20:51;14.93;;;12.20;;
9328;SDS011;4703;48.748;19.142;2023-04-07T04:23:18;16.60;;;12.00;;
9328;SDS011;4703;48.748;19.142;2023-04-07T04:25:45;15.33;;;11.67;;
9328;SDS011;4703;48.748;19.142;2023-04-07T04:28:12;14.53;;;12.23;;
9328;SDS011;4703;48.748;19.142;2023-04-07T04:30:39;14.63;;;12.00;;
9328;SDS011;4703;48.748;19.142;2023-04-07T04:33:06;14.97;;;12.40;;
9328;SDS011;4703;48.748;19.142;2023-04-07T04:35:33;14.13;;;12.47;;
9328;SDS011;4703;48.748;19.142;2023-04-07T04:38:00;16.93;;;13.20;;
9328;SDS011;4703;48.748;19.142;2023-04-07T04:40:27;16.60;;;11.90;;
9328;SDS011;4703;48.748;19.142;2023-04-07T04:42:54;16.83;;;12.97;;
9328;SDS011;4703;48.748;19.142;2023-04-07T04:45:21;18.60;;;13.47;;
9328;SDS011;4703;48.748;19.142;2023-04-07T04:47:48;18.80;;;13.37;;
9328;SDS011;4703;48.748;19.142;2023-04-07T04:50:15;15.43;;;13.17;;
9328;SDS011;4703;48.748;19.142;2023-04-07T04:52:42;18.80;;;13.57;;
9328;SDS011;4703;48.748;19.142;2023-04-07T04:55:09;15.93;;;13.50;;
9328;SDS011;4703;48.748;19.142;2023-04-07T04:57:39;21.37;;;14.63;;
9328;SDS011;4703;48.748;19.142;2023-04-07T05:00:06;17.60;;;13.10;;
9328;SDS011;4703;48.748;19.142;2023-04-07T05:02:38;16.37;;;12.10;;
9328;SDS011;4703;48.748;19.142;2023-04-07T05:05:05;19.77;;;13.10;;
9328;SDS011;4703;48.748;19.142;2023-04-07T05:07:32;18.67;;;13.40;;
9328;SDS011;4703;48.748;19.142;2023-04-07T05:09:59;20.13;;;14.43;;
9328;SDS011;4703;48.748;19.142;2023-04-07T05:12:26;17.33;;;13.20;;
9328;SDS011;4703;48.748;19.142;2023-04-07T05:14:53;17.80;;;13.80;;
9328;SDS011;4703;48.748;19.142;2023-04-07T05:17:20;18.30;;;13.80;;
9328;SDS011;4703;48.748;19.142;2023-04-07T05:19:47;21.10;;;15.37;;
9328;SDS011;4703;48.748;19.142;2023-04-07T05:22:14;17.13;;;12.90;;
9328;SDS011;4703;48.748;19.142;2023-04-07T05:24:41;15.33;;;12.13;;
9328;SDS011;4703;48.748;19.142;2023-04-07T05:27:08;17.23;;;13.00;;
9328;SDS011;4703;48.748;19.142;2023-04-07T05:29:35;14.43;;;12.70;;
9328;SDS011;4703;48.748;19.142;2023-04-07T05:32:03;16.63;;;13.67;;
9328;SDS011;4703;48.748;19.142;2023-04-07T05:34:31;15.20;;;12.80;;
9328;SDS011;4703;48.748;19.142;2023-04-07T05:36:58;17.43;;;12.33;;
9328;SDS011;4703;48.748;19.142;2023-04-07T05:39:25;17.30;;;13.63;;
9328;SDS011;4703;48.748;19.142;2023-04-07T05:41:52;14.90;;;12.73;;
9328;SDS011;4703;48.748;19.142;2023-04-07T05:44:19;15.37;;;11.40;;
9328;SDS011;4703;48.748;19.142;2023-04-07T05:46:46;15.47;;;11.63;;
9328;SDS011;4703;48.748;19.142;2023-04-07T05:49:13;17.00;;;12.33;;
9328;SDS011;4703;48.748;19.142;2023-04-07T05:51:45;13.70;;;11.60;;
9328;SDS011;4703;48.748;19.142;2023-04-07T05:54:14;17.07;;;12.80;;
9328;SDS011;4703;48.748;19.142;2023-04-07T05:56:41;17.00;;;13.27;;
9328;SDS011;4703;48.748;19.142;2023-04-07T05:59:08;16.33;;;13.40;;
9328;SDS011;4703;48.748;19.142;2023-04-07T06:01:35;17.40;;;14.03;;
9328;SDS011;4703;48.748;19.142;2023-04-07T06:04:02;18.60;;;14.00;;
9328;SDS011;4703;48.748;19.142;2023-04-07T06:06:30;15.83;;;13.30;;
9328;SDS011;4703;48.748;19.142;2023-04-07T06:08:57;16.33;;;13.00;;
9328;SDS011;4703;48.748;19.142;2023-04-07T06:11:25;17.27;;;13.13;;
9328;SDS011;4703;48.748;19.142;2023-04-07T06:13:52;19.90;;;14.17;;
9328;SDS011;4703;48.748;19.142;2023-04-07T06:16:19;16.30;;;13.77;;
9328;SDS011;4703;48.748;19.142;2023-04-07T06:18:46;13.87;;;12.37;;
9328;SDS011;4703;48.748;19.142;2023-04-07T06:21:13;17.00;;;13.20;;
9328;SDS011;4703;48.748;19.142;2023-04-07T06:23:41;15.50;;;12.80;;
9328;SDS011;4703;48.748;19.142;2023-04-07T06:26:11;18.60;;;13.10;;
9328;SDS011;4703;48.748;19.142;2023-04-07T06:28:38;16.93;;;13.23;;
9328;SDS011;4703;48.748;19.142;2023-04-07T06:31:07;15.30;;;12.63;;
9328;SDS011;4703;48.748;19.142;2023-04-07T06:33:34;16.93;;;13.27;;
9328;SDS011;4703;48.748;19.142;2023-04-07T06:36:01;14.93;;;12.37;;
9328;SDS011;4703;48.748;19.142;2023-04-07T06:38:28;16.27;;;12.83;;
9328;SDS011;4703;48.748;19.142;2023-04-07T06:40:55;20.63;;;13.63;;
9328;SDS011;4703;48.748;19.142;2023-04-07T06:43:22;24.87;;;18.07;;
9328;SDS011;4703;48.748;19.142;2023-04-07T06:45:49;17.30;;;14.37;;
9328;SDS011;4703;48.748;19.142;2023-04-07T06:48:16;15.37;;;12.43;;
9328;SDS011;4703;48.748;19.142;2023-04-07T06:50:48;19.60;;;14.63;;
9328;SDS011;4703;48.748;19.142;2023-04-07T06:53:15;16.00;;;13.37;;
9328;SDS011;4703;48.748;19.142;2023-04-07T06:55:42;17.63;;;13.27;;
9328;SDS011;4703;48.748;19.142;2023-04-07T06:58:09;20.40;;;15.47;;
9328;SDS011;4703;48.748;19.142;2023-04-07T07:00:36;17.03;;;13.20;;
9328;SDS011;4703;48.748;19.142;2023-04-07T07:03:03;15.90;;;12.83;;
9328;SDS011;4703;48.748;19.142;2023-04-07T07:05:32;15.90;;;13.20;;
9328;SDS011;4703;48.748;19.142;2023-04-07T07:07:59;15.43;;;12.93;;
9328;SDS011;4703;48.748;19.142;2023-04-07T07:10:26;14.30;;;11.67;;
9328;SDS011;4703;48.748;19.142;2023-04-07T07:12:53;17.03;;;13.40;;
9328;SDS011;4703;48.748;19.142;2023-04-07T07:15:20;38.40;;;26.17;;
9328;SDS011;4703;48.748;19.142;2023-04-07T07:17:47;37.67;;;27.17;;
9328;SDS011;4703;48.748;19.142;2023-04-07T07:20:14;18.97;;;14.60;;
9328;SDS011;4703;48.748;19.142;2023-04-07T07:22:41;13.73;;;10.93;;
9328;SDS011;4703;48.748;19.142;2023-04-07T07:25:08;12.40;;;10.80;;
9328;SDS011;4703;48.748;19.142;2023-04-07T07:27:35;39.47;;;23.83;;
9328;SDS011;4703;48.748;19.142;2023-04-07T07:30:02;28.67;;;19.43;;
9328;SDS011;4703;48.748;19.142;2023-04-07T07:32:31;57.43;;;36.70;;
9328;SDS011;4703;48.748;19.142;2023-04-07T07:34:58;17.20;;;14.07;;
9328;SDS011;4703;48.748;19.142;2023-04-07T07:37:25;14.03;;;10.13;;
9328;SDS011;4703;48.748;19.142;2023-04-07T07:39:53;13.90;;;12.43;;
9328;SDS011;4703;48.748;19.142;2023-04-07T07:42:21;12.67;;;10.60;;
9328;SDS011;4703;48.748;19.142;2023-04-07T07:44:48;12.40;;;10.70;;
9328;SDS011;4703;48.748;19.142;2023-04-07T07:47:15;12.33;;;10.87;;
9328;SDS011;4703;48.748;19.142;2023-04-07T07:49:42;12.20;;;10.53;;
9328;SDS011;4703;48.748;19.142;2023-04-07T07:52:09;12.70;;;11.20;;
9328;SDS011;4703;48.748;19.142;2023-04-07T07:54:36;10.90;;;9.70;;
9328;SDS011;4703;48.748;19.142;2023-04-07T07:57:03;21.97;;;16.37;;
9328;SDS011;4703;48.748;19.142;2023-04-07T07:59:31;16.37;;;14.00;;
9328;SDS011;4703;48.748;19.142;2023-04-07T08:01:59;14.27;;;11.10;;
9328;SDS011;4703;48.748;19.142;2023-04-07T08:04:26;11.80;;;10.27;;
9328;SDS011;4703;48.748;19.142;2023-04-07T08:06:53;9.90;;;8.97;;
9328;SDS011;4703;48.748;19.142;2023-04-07T08:09:21;10.17;;;8.17;;
9328;SDS011;4703;48.748;19.142;2023-04-07T08:11:48;9.77;;;8.77;;
9328;SDS011;4703;48.748;19.142;2023-04-07T08:14:15;14.57;;;11.77;;
9328;SDS011;4703;48.748;19.142;2023-04-07T08:16:42;17.87;;;13.30;;
9328;SDS011;4703;48.748;19.142;2023-04-07T08:19:10;23.00;;;16.23;;
9328;SDS011;4703;48.748;19.142;2023-04-07T08:21:37;14.53;;;11.57;;
9328;SDS011;4703;48.748;19.142;2023-04-07T08:24:05;11.40;;;8.97;;
9328;SDS011;4703;48.748;19.142;2023-04-07T08:26:32;9.50;;;8.63;;
9328;SDS011;4703;48.748;19.142;2023-04-07T08:28:59;11.20;;;9.97;;
9328;SDS011;4703;48.748;19.142;2023-04-07T08:31:26;17.27;;;13.93;;
9328;SDS011;4703;48.748;19.142;2023-04-07T08:33:53;32.73;;;24.50;;
9328;SDS011;4703;48.748;19.142;2023-04-07T08:36:23;37.50;;;26.23;;
9328;SDS011;4703;48.748;19.142;2023-04-07T08:38:51;27.80;;;19.80;;
9328;SDS011;4703;48.748;19.142;2023-04-07T08:41:37;24.67;;;18.23;;
9328;SDS011;4703;48.748;19.142;2023-04-07T08:44:06;24.77;;;18.70;;
9328;SDS011;4703;48.748;19.142;2023-04-07T08:46:34;16.13;;;12.00;;
9328;SDS011;4703;48.748;19.142;2023-04-07T08:49:08;12.57;;;10.60;;
9328;SDS011;4703;48.748;19.142;2023-04-07T08:51:43;12.83;;;11.17;;
9328;SDS011;4703;48.748;19.142;2023-04-07T08:54:16;13.20;;;11.47;;
9328;SDS011;4703;48.748;19.142;2023-04-07T08:56:44;13.07;;;11.77;;
9328;SDS011;4703;48.748;19.142;2023-04-07T08:59:12;15.03;;;11.63;;
9328;SDS011;4703;48.748;19.142;2023-04-07T09:01:41;11.53;;;10.37;;
9328;SDS011;4703;48.748;19.142;2023-04-07T09:04:09;11.57;;;10.27;;
9328;SDS011;4703;48.748;19.142;2023-04-07T09:06:37;12.13;;;10.70;;
9328;SDS011;4703;48.748;19.142;2023-04-07T09:09:04;13.23;;;10.67;;
9328;SDS011;4703;48.748;19.142;2023-04-07T09:11:33;12.03;;;10.73;;
9328;SDS011;4703;48.748;19.142;2023-04-07T09:14:02;12.80;;;11.50;;
9328;SDS011;4703;48.748;19.142;2023-04-07T09:16:30;14.83;;;11.83;;
9328;SDS011;4703;48.748;19.142;2023-04-07T09:18:57;14.23;;;10.17;;
9328;SDS011;4703;48.748;19.142;2023-04-07T09:21:25;14.70;;;11.10;;
9328;SDS011;4703;48.748;19.142;2023-04-07T09:23:52;14.63;;;13.13;;
9328;SDS011;4703;48.748;19.142;2023-04-07T09:26:21;34.83;;;24.03;;
9328;SDS011;4703;48.748;19.142;2023-04-07T09:28:54;32.00;;;24.10;;
9328;SDS011;4703;48.748;19.142;2023-04-07T09:34:52;11.20;;;10.00;;
9328;SDS011;4703;48.748;19.142;2023-04-07T09:37:10;12.60;;;10.33;;
9328;SDS011;4703;48.748;19.142;2023-04-07T09:39:48;27.33;;;17.17;;
9328;SDS011;4703;48.748;19.142;2023-04-07T09:42:17;17.33;;;14.07;;
9328;SDS011;4703;48.748;19.142;2023-04-07T09:44:46;15.23;;;11.60;;
9328;SDS011;4703;48.748;19.142;2023-04-07T09:47:13;10.53;;;9.50;;
9328;SDS011;4703;48.748;19.142;2023-04-07T09:49:51;11.07;;;9.27;;
9328;SDS011;4703;48.748;19.142;2023-04-07T09:52:24;11.87;;;10.67;;
9328;SDS011;4703;48.748;19.142;2023-04-07T09:55:14;11.23;;;10.20;;
9328;SDS011;4703;48.748;19.142;2023-04-07T09:57:42;10.70;;;9.60;;
9328;SDS011;4703;48.748;19.142;2023-04-07T10:00:11;12.00;;;10.47;;
9328;SDS011;4703;48.748;19.142;2023-04-07T10:02:38;11.10;;;9.80;;
9328;SDS011;4703;48.748;19.142;2023-04-07T10:05:09;13.10;;;11.70;;
9328;SDS011;4703;48.748;19.142;2023-04-07T10:07:37;13.60;;;11.00;;
9328;SDS011;4703;48.748;19.142;2023-04-07T10:10:07;10.90;;;9.80;;
9328;SDS011;4703;48.748;19.142;2023-04-07T10:12:36;14.20;;;11.47;;
9328;SDS011;4703;48.748;19.142;2023-04-07T10:15:03;14.77;;;13.00;;
9328;SDS011;4703;48.748;19.142;2023-04-07T10:17:31;19.37;;;16.30;;
9328;SDS011;4703;48.748;19.142;2023-04-07T10:19:59;14.20;;;10.53;;
9328;SDS011;4703;48.748;19.142;2023-04-07T10:22:27;12.23;;;10.80;;
9328;SDS011;4703;48.748;19.142;2023-04-07T10:24:58;12.07;;;10.80;;
9328;SDS011;4703;48.748;19.142;2023-04-07T10:27:33;11.17;;;10.07;;
9328;SDS011;4703;48.748;19.142;2023-04-07T10:30:06;11.53;;;10.43;;
9328;SDS011;4703;48.748;19.142;2023-04-07T10:32:49;19.10;;;15.43;;
9328;SDS011;4703;48.748;19.142;2023-04-07T10:35:18;34.37;;;24.77;;
9328;SDS011;4703;48.748;19.142;2023-04-07T10:40:33;11.93;;;10.77;;
9328;SDS011;4703;48.748;19.142;2023-04-07T10:43:02;10.50;;;9.13;;
9328;SDS011;4703;48.748;19.142;2023-04-07T10:48:17;35.30;;;26.10;;
9328;SDS011;4703;48.748;19.142;2023-04-07T10:50:46;27.47;;;22.70;;
9328;SDS011;4703;48.748;19.142;2023-04-07T10:53:33;14.83;;;12.80;;
9328;SDS011;4703;48.748;19.142;2023-04-07T10:56:00;10.90;;;9.13;;
9328;SDS011;4703;48.748;19.142;2023-04-07T10:58:31;9.60;;;8.60;;
9328;SDS011;4703;48.748;19.142;2023-04-07T11:03:26;10.17;;;9.17;;
9328;SDS011;4703;48.748;19.142;2023-04-07T11:06:29;10.77;;;9.67;;
9328;SDS011;4703;48.748;19.142;2023-04-07T11:08:49;10.10;;;9.10;;
9328;SDS011;4703;48.748;19.142;2023-04-07T11:11:33;10.77;;;9.67;;
9328;SDS011;4703;48.748;19.142;2023-04-07T11:14:04;9.40;;;8.50;;
9328;SDS011;4703;48.748;19.142;2023-04-07T11:16:36;10.13;;;9.10;;
9328;SDS011;4703;48.748;19.142;2023-04-07T11:19:08;10.70;;;9.70;;
9328;SDS011;4703;48.748;19.142;2023-04-07T11:21:35;10.30;;;9.30;;
9328;SDS011;4703;48.748;19.142;2023-04-07T11:24:02;10.80;;;8.87;;
9328;SDS011;4703;48.748;19.142;2023-04-07T11:26:35;9.87;;;8.87;;
9328;SDS011;4703;48.748;19.142;2023-04-07T11:29:07;9.90;;;8.90;;
9328;SDS011;4703;48.748;19.142;2023-04-07T11:31:34;10.70;;;9.60;;
9328;SDS011;4703;48.748;19.142;2023-04-07T11:34:02;10.63;;;9.53;;
9328;SDS011;4703;48.748;19.142;2023-04-07T11:36:36;9.23;;;8.27;;
9328;SDS011;4703;48.748;19.142;2023-04-07T11:39:05;10.10;;;9.10;;
9328;SDS011;4703;48.748;19.142;2023-04-07T11:41:46;9.73;;;8.93;;
9328;SDS011;4703;48.748;19.142;2023-04-07T11:44:15;11.33;;;9.50;;
9328;SDS011;4703;48.748;19.142;2023-04-07T11:46:55;10.27;;;9.27;;
9328;SDS011;4703;48.748;19.142;2023-04-07T11:49:27;11.57;;;9.20;;
9328;SDS011;4703;48.748;19.142;2023-04-07T11:51:59;9.60;;;8.60;;
9328;SDS011;4703;48.748;19.142;2023-04-07T11:54:41;10.40;;;9.40;;
9328;SDS011;4703;48.748;19.142;2023-04-07T11:57:13;9.97;;;8.97;;
9328;SDS011;4703;48.748;19.142;2023-04-07T11:59:50;9.07;;;8.23;;
9328;SDS011;4703;48.748;19.142;2023-04-07T12:02:34;9.37;;;8.57;;
9328;SDS011;4703;48.748;19.142;2023-04-07T12:05:02;9.33;;;8.30;;
9328;SDS011;4703;48.748;19.142;2023-04-07T12:07:30;8.40;;;7.40;;
9328;SDS011;4703;48.748;19.142;2023-04-07T12:10:13;9.00;;;8.10;;
9328;SDS011;4703;48.748;19.142;2023-04-07T12:12:45;10.27;;;8.47;;
9328;SDS011;4703;48.748;19.142;2023-04-07T12:15:13;8.70;;;7.80;;
9328;SDS011;4703;48.748;19.142;2023-04-07T12:17:46;9.20;;;8.30;;
9328;SDS011;4703;48.748;19.142;2023-04-07T12:20:14;9.50;;;8.50;;
9328;SDS011;4703;48.748;19.142;2023-04-07T12:22:41;10.27;;;9.27;;
9328;SDS011;4703;48.748;19.142;2023-04-07T12:25:08;10.53;;;9.53;;
9328;SDS011;4703;48.748;19.142;2023-04-07T12:27:35;11.77;;;8.87;;
9328;SDS011;4703;48.748;19.142;2023-04-07T12:30:09;10.00;;;8.97;;
9328;SDS011;4703;48.748;19.142;2023-04-07T12:32:38;16.03;;;11.50;;
9328;SDS011;4703;48.748;19.142;2023-04-07T12:35:05;12.50;;;10.60;;
9328;SDS011;4703;48.748;19.142;2023-04-07T12:37:33;10.97;;;9.80;;
9328;SDS011;4703;48.748;19.142;2023-04-07T12:40:00;12.23;;;10.83;;
9328;SDS011;4703;48.748;19.142;2023-04-07T12:42:27;12.47;;;11.17;;
9328;SDS011;4703;48.748;19.142;2023-04-07T12:44:54;11.30;;;10.20;;
9328;SDS011;4703;48.748;19.142;2023-04-07T12:47:22;12.57;;;10.97;;
9328;SDS011;4703;48.748;19.142;2023-04-07T12:49:49;12.23;;;10.70;;
9328;SDS011;4703;48.748;19.142;2023-04-07T12:52:16;13.53;;;11.87;;
9328;SDS011;4703;48.748;19.142;2023-04-07T12:54:43;11.23;;;10.03;;
9328;SDS011;4703;48.748;19.142;2023-04-07T12:57:10;12.77;;;11.50;;
9328;SDS011;4703;48.748;19.142;2023-04-07T12:59:37;13.53;;;12.17;;
9328;SDS011;4703;48.748;19.142;2023-04-07T13:02:05;13.50;;;12.10;;
9328;SDS011;4703;48.748;19.142;2023-04-07T13:04:33;13.00;;;11.20;;
9328;SDS011;4703;48.748;19.142;2023-04-07T13:07:00;14.97;;;12.77;;
9328;SDS011;4703;48.748;19.142;2023-04-07T13:09:28;15.20;;;12.53;;
9328;SDS011;4703;48.748;19.142;2023-04-07T13:11:55;13.93;;;11.30;;
9328;SDS011;4703;48.748;19.142;2023-04-07T13:14:23;14.27;;;12.10;;
9328;SDS011;4703;48.748;19.142;2023-04-07T13:16:50;13.93;;;12.17;;
9328;SDS011;4703;48.748;19.142;2023-04-07T13:19:18;15.70;;;12.87;;
9328;SDS011;4703;48.748;19.142;2023-04-07T13:21:45;20.40;;;16.63;;
9328;SDS011;4703;48.748;19.142;2023-04-07T13:24:16;31.30;;;23.63;;
9328;SDS011;4703;48.748;19.142;2023-04-07T13:26:49;20.47;;;17.60;;
9328;SDS011;4703;48.748;19.142;2023-04-07T13:29:17;19.83;;;17.03;;
9328;SDS011;4703;48.748;19.142;2023-04-07T13:31:45;15.27;;;13.67;;
9328;SDS011;4703;48.748;19.142;2023-04-07T13:34:12;18.43;;;16.40;;
9328;SDS011;4703;48.748;19.142;2023-04-07T13:36:40;31.40;;;24.80;;
9328;SDS011;4703;48.748;19.142;2023-04-07T13:39:07;18.30;;;15.77;;
9328;SDS011;4703;48.748;19.142;2023-04-07T13:41:34;13.60;;;12.30;;
9328;SDS011;4703;48.748;19.142;2023-04-07T13:44:01;14.50;;;12.67;;
9328;SDS011;4703;48.748;19.142;2023-04-07T13:46:28;13.97;;;12.47;;
9328;SDS011;4703;48.748;19.142;2023-04-07T13:48:55;14.10;;;12.23;;
9328;SDS011;4703;48.748;19.142;2023-04-07T13:51:22;16.20;;;14.10;;
9328;SDS011;4703;48.748;19.142;2023-04-07T13:53:49;14.30;;;12.80;;
9328;SDS011;4703;48.748;19.142;2023-04-07T13:56:17;15.20;;;13.50;;
9328;SDS011;4703;48.748;19.142;2023-04-07T13:58:44;15.13;;;13.00;;
9328;SDS011;4703;48.748;19.142;2023-04-07T14:01:11;14.37;;;12.37;;
9328;SDS011;4703;48.748;19.142;2023-04-07T14:03:38;15.70;;;13.07;;
9328;SDS011;4703;48.748;19.142;2023-04-07T14:06:05;13.80;;;12.00;;
9328;SDS011;4703;48.748;19.142;2023-04-07T14:08:32;14.80;;;13.40;;
9328;SDS011;4703;48.748;19.142;2023-04-07T14:10:59;13.93;;;12.27;;
9328;SDS011;4703;48.748;19.142;2023-04-07T14:13:28;13.13;;;11.80;;
9328;SDS011;4703;48.748;19.142;2023-04-07T14:15:54;14.70;;;11.87;;
9328;SDS011;4703;48.748;19.142;2023-04-07T14:18:21;14.70;;;12.10;;
9328;SDS011;4703;48.748;19.142;2023-04-07T14:20:49;14.43;;;12.67;;
9328;SDS011;4703;48.748;19.142;2023-04-07T14:23:16;14.77;;;13.17;;
9328;SDS011;4703;48.748;19.142;2023-04-07T14:25:59;14.90;;;13.27;;
9328;SDS011;4703;48.748;19.142;2023-04-07T14:28:26;15.53;;;12.33;;
9328;SDS011;4703;48.748;19.142;2023-04-07T14:30:54;15.33;;;12.90;;
9328;SDS011;4703;48.748;19.142;2023-04-07T14:33:21;19.30;;;16.27;;
9328;SDS011;4703;48.748;19.142;2023-04-07T14:35:48;19.13;;;15.27;;
9328;SDS011;4703;48.748;19.142;2023-04-07T14:38:15;15.47;;;12.50;;
9328;SDS011;4703;48.748;19.142;2023-04-07T14:40:42;19.23;;;15.80;;
9328;SDS011;4703;48.748;19.142;2023-04-07T14:43:10;17.50;;;15.20;;
9328;SDS011;4703;48.748;19.142;2023-04-07T14:45:37;35.13;;;26.40;;
9328;SDS011;4703;48.748;19.142;2023-04-07T14:48:04;15.60;;;13.03;;
9328;SDS011;4703;48.748;19.142;2023-04-07T14:50:32;28.37;;;21.77;;
9328;SDS011;4703;48.748;19.142;2023-04-07T14:52:59;36.30;;;26.03;;
9328;SDS011;4703;48.748;19.142;2023-04-07T14:55:26;18.70;;;15.10;;
9328;SDS011;4703;48.748;19.142;2023-04-07T14:57:54;15.23;;;12.50;;
9328;SDS011;4703;48.748;19.142;2023-04-07T15:00:21;15.63;;;12.37;;
9328;SDS011;4703;48.748;19.142;2023-04-07T15:02:50;14.70;;;12.60;;
9328;SDS011;4703;48.748;19.142;2023-04-07T15:05:19;12.87;;;11.03;;
9328;SDS011;4703;48.748;19.142;2023-04-07T15:07:51;14.43;;;12.00;;
9328;SDS011;4703;48.748;19.142;2023-04-07T15:10:18;16.13;;;12.93;;
9328;SDS011;4703;48.748;19.142;2023-04-07T15:12:45;14.43;;;12.80;;